Airfield :
LOGIN :

Register | Disclaimer

   EN    FR    IT 

 










Legend :    VFR   Marginal VFR   IFR   Intensive IFR   Very Intensive IFR
Visi :
Ceiling :
>= 8 km
>= 3000ft
5 to 8 km
1000 to 3000 ft
1500m to 5 km
500 to 1000 ft
800 to 1500m
200 to 500 ft
< 800m
< 200 ft
Symbols :   Thunderstorms  Fog  Heavy snow  Heavy precipitations  Wind > 20 kt
SIGMETs :     Misc.  Thunderstorms  Icing  Turbulence  Mountain Waves  Volcanic Ashes






- Airport Elevation : 124 ft
- IATA code : AVN


LFMV - Avignon Caumont

CURRENT METAR :
  • 102100Z AUTO 35004KT 310V020 CAVOK 04/M01 Q1021

EXPIRED METARs :
  • 102030Z AUTO 34010KT CAVOK 05/M00 Q1021
  • 102000Z AUTO 35005KT 300V010 CAVOK 05/M01 Q1021 NOSIG
  • 101930Z AUTO 34008KT 310V010 CAVOK 05/M01 Q1021 NOSIG
  • 101900Z AUTO 36010KT 330V030 CAVOK 06/M01 Q1021 NOSIG
  • 101830Z AUTO 36011KT 330V030 CAVOK 07/M01 Q1021 NOSIG

TAF TAF LFMV
Valid from the 10 at 15:00 until the 11 at 15:00 UTC


101400Z 1015/1115 35022KT CAVOK
BECMG 1018/1020 36005KT
TEMPO 1110/1115 RA BKN020
ATIS : +33 4 90 84 32 84



MET'MAP, your aeronautical weather chart ! - Copyright ORBIFLY December 2007 - Disclaimer

ORBIFLY MET'MAP TEAM :

Programming & Development : Alexandra Zaïnal
Concept & original design : Baudouin d'Aumeries
Assistance for programming : Marc-Olivier Méhu
Technical & hardware support : Manuel Goepfert

Contact : metmap@orbifly.com




SOURCES & CREDITS :

   NOAA